Time;durP1;ratioP1;P1;durP2;ratioP2;P2;SDS_P1;SDS_P2;PMS_P1;PMS_P2;Temp;Humidity;BMP_temperature;BMP_pressure;BME280_temperature;BME280_humidity;BME280_pressure;Samples;Min_cycle;Max_cycle;Signal;HPM_P1;HPM_P2
2021/12/24 00:01:33;;;;;;;59.92;22.73;;;5.50;99.90;;;;;;5055589;28;20055;-66
2021/12/24 00:03:58;;;;;;;61.65;23.17;;;5.60;99.90;;;;;;5055982;28;20506;-66
2021/12/24 00:06:24;;;;;;;63.90;22.98;;;5.60;99.90;;;;;;5055872;28;20044;-66
2021/12/24 00:08:50;;;;;;;68.97;23.70;;;5.60;99.90;;;;;;5056322;28;20047;-66
2021/12/24 00:11:16;;;;;;;72.95;23.73;;;5.60;99.90;;;;;;5055289;28;20072;-66
2021/12/24 00:13:46;;;;;;;57.15;22.45;;;5.60;99.90;;;;;;5050251;28;20039;-66
2021/12/24 00:16:23;;;;;;;59.22;21.98;;;5.60;99.90;;;;;;5057240;28;20146;-67
2021/12/24 00:37:35;;;;;;;60.47;20.50;;;5.70;99.90;;;;;;5062171;28;20045;-65
2021/12/24 00:40:14;;;;;;;53.88;19.55;;;5.70;99.90;;;;;;5062054;28;20041;-66
2021/12/24 00:42:44;;;;;;;50.13;18.52;;;5.70;99.90;;;;;;5062766;28;20049;-66
2021/12/24 00:45:11;;;;;;;57.20;19.10;;;5.70;99.90;;;;;;5052138;28;20140;-66
2021/12/24 00:47:37;;;;;;;42.75;17.35;;;5.70;99.90;;;;;;5064917;28;20088;-66
2021/12/24 00:50:08;;;;;;;52.50;17.85;;;5.70;99.90;;;;;;5062144;28;20121;-66
2021/12/24 00:55:11;;;;;;;40.85;16.23;;;5.70;99.90;;;;;;5060281;28;20049;-65
2021/12/24 00:57:43;;;;;;;39.05;16.70;;;5.80;99.90;;;;;;5057930;28;20056;-65
2021/12/24 01:00:16;;;;;;;50.58;18.92;;;5.80;99.90;;;;;;5047010;28;20046;-65
2021/12/24 01:02:42;;;;;;;43.58;17.50;;;5.80;99.90;;;;;;5044134;28;20037;-66
2021/12/24 01:05:09;;;;;;;41.22;16.80;;;5.80;99.90;;;;;;5037162;28;20091;-65
2021/12/24 01:07:35;;;;;;;44.28;17.52;;;5.80;99.90;;;;;;5047975;28;20041;-66
2021/12/24 01:10:01;;;;;;;41.33;17.13;;;5.90;99.90;;;;;;5058677;28;20119;-66
2021/12/24 01:12:26;;;;;;;44.00;16.50;;;6.40;99.90;;;;;;5060280;28;20037;-67
2021/12/24 01:14:52;;;;;;;40.22;15.60;;;5.90;99.90;;;;;;5063026;28;20048;-66
2021/12/24 01:19:46;;;;;;;57.17;17.05;;;5.90;99.90;;;;;;5064135;28;20041;-67
2021/12/24 01:25:23;;;;;;;34.60;14.32;;;6.00;99.90;;;;;;5058746;28;20037;-66
2021/12/24 01:27:55;;;;;;;47.65;15.50;;;5.90;99.90;;;;;;5054066;28;20045;-67
2021/12/24 01:38:22;;;;;;;35.80;13.60;;;6.00;99.90;;;;;;5057655;28;20163;-66
2021/12/24 01:43:24;;;;;;;35.53;13.57;;;6.60;99.90;;;;;;5058159;28;20053;-66
2021/12/24 01:45:53;;;;;;;34.20;13.60;;;6.10;99.90;;;;;;5059449;28;20037;-66
2021/12/24 01:48:18;;;;;;;;;;;6.10;99.90;;;;;;5059374;28;20033;-67
2021/12/24 01:50:48;;;;;;;32.33;12.27;;;6.10;99.90;;;;;;5058837;28;19931;-67
2021/12/24 01:53:20;;;;;;;39.63;14.32;;;6.10;99.90;;;;;;5052467;28;20095;-67
2021/12/24 01:55:48;;;;;;;38.08;12.95;;;6.10;99.90;;;;;;5062506;28;20048;-67
2021/12/24 01:58:20;;;;;;;40.63;12.55;;;6.20;99.90;;;;;;5058158;28;20045;-67
2021/12/24 02:00:50;;;;;;;32.40;11.63;;;6.20;99.90;;;;;;5056777;28;20041;-69
2021/12/24 02:03:16;;;;;;;23.33;10.02;;;6.30;99.90;;;;;;5063227;28;20123;-68
2021/12/24 02:05:43;;;;;;;34.10;11.80;;;6.20;99.90;;;;;;5063630;28;20036;-67
2021/12/24 02:08:10;;;;;;;36.97;11.60;;;6.30;99.90;;;;;;5063069;28;20044;-67
2021/12/24 02:10:37;;;;;;;24.27;10.05;;;6.20;99.90;;;;;;5048472;28;20049;-67
2021/12/24 02:13:03;;;;;;;28.00;11.15;;;6.30;99.90;;;;;;5057440;28;20041;-67
2021/12/24 02:15:33;;;;;;;25.48;10.07;;;6.30;99.90;;;;;;5056242;28;20037;-67
2021/12/24 02:28:45;;;;;;;26.42;9.93;;;6.40;99.90;;;;;;5052293;28;20040;-67
2021/12/24 02:31:17;;;;;;;33.92;11.55;;;6.40;99.90;;;;;;5066989;28;20036;-67
2021/12/24 02:33:43;;;;;;;23.30;10.23;;;6.40;99.90;;;;;;5052041;28;20487;-66
2021/12/24 02:36:10;;;;;;;25.70;10.52;;;6.40;99.90;;;;;;5059742;28;20124;-66
2021/12/24 02:38:38;;;;;;;23.02;10.88;;;6.40;99.90;;;;;;5059789;28;20106;-67
2021/12/24 02:41:04;;;;;;;28.73;11.45;;;7.40;99.90;;;;;;5057159;28;20045;-67
2021/12/24 02:43:31;;;;;;;25.05;10.82;;;6.40;99.90;;;;;;5060190;28;20499;-66
2021/12/24 02:46:05;;;;;;;32.13;11.45;;;6.50;99.90;;;;;;5056788;28;20052;-67
2021/12/24 02:53:58;;;;;;;29.00;11.23;;;6.50;99.90;;;;;;5063640;28;20052;-67
2021/12/24 02:56:29;;;;;;;31.17;11.63;;;6.50;99.90;;;;;;5062491;28;20072;-66
2021/12/24 02:58:56;;;;;;;33.45;12.10;;;6.50;99.90;;;;;;5058422;28;20120;-66
2021/12/24 03:01:26;;;;;;;37.05;12.27;;;6.50;99.90;;;;;;5060787;28;20451;-66
2021/12/24 03:03:51;;;;;;;45.15;12.88;;;6.60;99.90;;;;;;5058304;28;20054;-67
2021/12/24 03:06:21;;;;;;;30.65;11.85;;;6.60;99.90;;;;;;5059334;28;20064;-66
2021/12/24 03:08:47;;;;;;;37.60;12.50;;;6.60;99.90;;;;;;5058063;28;20055;-65
2021/12/24 03:11:13;;;;;;;54.42;15.30;;;6.60;99.90;;;;;;5055430;28;20398;-66
2021/12/24 03:13:40;;;;;;;27.92;12.10;;;6.60;99.90;;;;;;5051742;28;20045;-66
2021/12/24 03:16:06;;;;;;;49.45;14.48;;;6.80;99.90;;;;;;5030182;28;20103;-66
2021/12/24 03:18:35;;;;;;;42.30;13.95;;;6.70;99.90;;;;;;5054238;28;20045;-66
2021/12/24 03:21:09;;;;;;;55.63;15.73;;;6.70;99.90;;;;;;5056151;28;20095;-66
2021/12/24 03:23:44;;;;;;;58.55;17.83;;;6.70;99.90;;;;;;5053536;28;20041;-66
2021/12/24 03:26:13;;;;;;;46.67;17.30;;;6.70;99.90;;;;;;5051896;28;20045;-68
2021/12/24 03:28:39;;;;;;;58.75;18.45;;;6.80;99.90;;;;;;5045352;28;20592;-67
2021/12/24 03:31:06;;;;;;;59.88;19.60;;;6.80;99.90;;;;;;5047181;28;20307;-67
2021/12/24 03:33:34;;;;;;;73.10;21.13;;;6.90;99.90;;;;;;5049362;28;20057;-66
2021/12/24 03:36:05;;;;;;;88.53;23.63;;;7.00;99.90;;;;;;5051313;28;20045;-66
2021/12/24 03:38:30;;;;;;;90.60;23.17;;;7.00;99.90;;;;;;5053788;28;20092;-66
2021/12/24 03:40:56;;;;;;;92.88;23.40;;;7.10;99.90;;;;;;5052525;28;20079;-66
2021/12/24 03:43:22;;;;;;;99.50;24.98;;;7.10;99.90;;;;;;5051176;28;20665;-66
2021/12/24 03:45:59;;;;;;;96.00;23.70;;;7.20;99.90;;;;;;5053862;28;20040;-67
2021/12/24 03:49:16;;;;;;;91.38;24.40;;;7.20;99.90;;;;;;5050365;28;20056;-65
2021/12/24 03:56:42;;;;;;;111.45;26.10;;;7.40;99.90;;;;;;5052842;28;20049;-65
2021/12/24 03:59:09;;;;;;;92.00;24.73;;;7.40;99.90;;;;;;5065631;28;20047;-66
2021/12/24 04:01:36;;;;;;;108.20;27.10;;;7.40;99.90;;;;;;5044947;28;20083;-67
2021/12/24 04:04:04;;;;;;;109.63;25.88;;;7.60;99.90;;;;;;5052918;28;20029;-66
2021/12/24 04:06:30;;;;;;;105.53;26.17;;;7.40;99.90;;;;;;5050690;28;20049;-66
2021/12/24 04:08:56;;;;;;;99.13;24.15;;;7.40;99.90;;;;;;5066894;28;20491;-66
2021/12/24 04:11:22;;;;;;;113.50;26.70;;;7.50;99.90;;;;;;5052015;28;20071;-66
2021/12/24 04:13:47;;;;;;;125.72;29.27;;;7.50;99.90;;;;;;5050983;28;20037;-66
2021/12/24 04:16:13;;;;;;;122.13;27.30;;;7.60;99.90;;;;;;5052208;28;20407;-67
2021/12/24 04:19:37;;;;;;;113.68;26.33;;;7.60;99.90;;;;;;5051633;28;20072;-66
2021/12/24 04:26:57;;;;;;;119.80;25.85;;;7.60;99.90;;;;;;5054624;28;20072;-67
2021/12/24 04:29:23;;;;;;;134.73;27.08;;;7.60;99.90;;;;;;5060955;28;20491;-67
2021/12/24 04:31:57;;;;;;;89.38;23.48;;;7.60;99.90;;;;;;5045909;28;20515;-67
2021/12/24 04:34:27;;;;;;;94.28;23.65;;;7.60;99.90;;;;;;5062530;28;20079;-66
2021/12/24 05:03:40;;;;;;;99.28;29.60;;;8.00;99.90;;;;;;5053927;28;20291;-66
2021/12/24 05:06:29;;;;;;;105.18;32.45;;;8.00;99.90;;;;;;5051535;28;20048;-67
2021/12/24 05:08:58;;;;;;;114.40;32.75;;;8.00;99.90;;;;;;5042012;28;20122;-67
2021/12/24 05:11:25;;;;;;;95.88;30.45;;;8.10;99.90;;;;;;5051314;28;20494;-66
2021/12/24 05:13:52;;;;;;;94.80;30.08;;;8.20;99.90;;;;;;5066885;28;20052;-66
2021/12/24 05:21:32;;;;;;;89.05;29.60;;;8.40;99.90;;;;;;5046275;28;20076;-69
2021/12/24 05:21:44;;;;;;;96.25;28.58;;;8.20;99.90;;;;;;5049890;28;20132;-66
2021/12/24 05:24:12;;;;;;;87.82;27.88;;;8.20;99.90;;;;;;5053021;28;20262;-68
2021/12/24 05:26:39;;;;;;;90.38;30.77;;;8.20;99.90;;;;;;5051772;28;20452;-65
2021/12/24 05:29:06;;;;;;;96.75;31.60;;;8.20;99.90;;;;;;5052219;28;20064;-66
2021/12/24 05:31:33;;;;;;;86.35;29.52;;;8.10;99.90;;;;;;5050719;28;20387;-66
2021/12/24 05:33:59;;;;;;;94.80;31.60;;;8.20;99.90;;;;;;5034210;28;20119;-66
2021/12/24 05:36:26;;;;;;;94.28;30.05;;;8.20;99.90;;;;;;5045904;28;20053;-67
2021/12/24 05:38:51;;;;;;;110.22;31.88;;;8.20;99.90;;;;;;5050660;28;20053;-66
2021/12/24 05:41:18;;;;;;;124.95;33.08;;;8.20;99.90;;;;;;5050992;28;20041;-65
2021/12/24 05:43:44;;;;;;;82.22;28.67;;;8.20;99.90;;;;;;5050090;28;20049;-66
2021/12/24 05:46:10;;;;;;;94.28;31.13;;;8.10;99.90;;;;;;5051559;28;20052;-66
2021/12/24 05:48:36;;;;;;;80.78;28.52;;;8.20;99.90;;;;;;5048667;28;20041;-66
2021/12/24 05:51:02;;;;;;;85.05;29.20;;;8.20;99.90;;;;;;5046732;28;20131;-68
2021/12/24 05:53:28;;;;;;;81.72;27.25;;;8.20;99.90;;;;;;5031396;28;20427;-66
2021/12/24 05:55:54;;;;;;;83.05;28.52;;;8.20;99.90;;;;;;5049745;28;20040;-67
2021/12/24 05:58:20;;;;;;;68.03;25.45;;;8.20;99.90;;;;;;5047980;28;20075;-67
2021/12/24 06:00:48;;;;;;;82.05;25.63;;;8.20;99.90;;;;;;5079354;28;20044;-64
2021/12/24 06:03:15;;;;;;;76.63;24.08;;;8.20;99.90;;;;;;5051866;28;20048;-67
2021/12/24 06:05:42;;;;;;;70.93;22.90;;;8.30;99.90;;;;;;5055871;28;20502;-67
2021/12/24 06:08:07;;;;;;;57.67;20.77;;;8.20;99.90;;;;;;5055002;28;20073;-66
2021/12/24 06:10:34;;;;;;;70.38;21.08;;;8.20;99.90;;;;;;5047655;28;20077;-66
2021/12/24 06:13:00;;;;;;;59.90;21.00;;;8.20;99.90;;;;;;5053424;28;20053;-65
2021/12/24 06:15:26;;;;;;;64.88;19.35;;;8.20;99.90;;;;;;5049451;28;20044;-66
2021/12/24 06:17:55;;;;;;;67.05;19.23;;;8.30;99.90;;;;;;5051575;28;20049;-67
2021/12/24 06:20:22;;;;;;;49.80;18.02;;;8.20;99.90;;;;;;5044711;28;20179;-67
2021/12/24 06:22:48;;;;;;;62.47;18.08;;;8.20;99.90;;;;;;5045988;28;20444;-67
2021/12/24 06:25:17;;;;;;;66.25;19.08;;;8.20;99.90;;;;;;5053812;28;20073;-67
2021/12/24 06:27:42;;;;;;;;;;;8.20;99.90;;;;;;5054179;28;20049;-67
2021/12/24 06:30:09;;;;;;;58.45;17.38;;;8.20;99.90;;;;;;5053825;28;19927;-67
2021/12/24 06:32:35;;;;;;;54.53;16.95;;;8.20;99.90;;;;;;5055112;28;20045;-67
2021/12/24 06:35:00;;;;;;;62.53;17.45;;;8.20;99.90;;;;;;5050159;28;20446;-66
2021/12/24 06:37:26;;;;;;;71.90;18.38;;;8.20;99.90;;;;;;5048922;28;20095;-66
2021/12/24 06:39:52;;;;;;;61.47;17.00;;;8.20;99.90;;;;;;5053846;28;20439;-67
2021/12/24 06:42:17;;;;;;;53.17;16.85;;;8.20;99.90;;;;;;5039917;28;20395;-68
2021/12/24 06:44:43;;;;;;;55.42;15.35;;;8.20;99.90;;;;;;5050880;28;20041;-68
2021/12/24 06:47:09;;;;;;;55.85;14.55;;;8.10;99.90;;;;;;5053426;28;20048;-68
2021/12/24 06:49:35;;;;;;;47.83;15.27;;;8.10;99.90;;;;;;5050066;28;20131;-67
2021/12/24 06:52:01;;;;;;;50.80;14.80;;;8.10;99.90;;;;;;5054665;28;20068;-67
2021/12/24 06:54:27;;;;;;;44.83;14.30;;;8.10;99.90;;;;;;5050743;28;20110;-67
2021/12/24 06:56:53;;;;;;;48.60;14.70;;;8.10;99.90;;;;;;5053582;28;20107;-67
2021/12/24 06:59:18;;;;;;;48.25;15.45;;;8.10;99.90;;;;;;5053209;28;20564;-66
2021/12/24 07:01:44;;;;;;;52.28;16.17;;;8.10;99.90;;;;;;5053161;28;20045;-67
2021/12/24 07:04:10;;;;;;;49.33;16.00;;;8.10;99.90;;;;;;5052671;28;20211;-67
2021/12/24 07:06:37;;;;;;;51.70;15.70;;;8.00;99.90;;;;;;5050337;28;20055;-67
2021/12/24 07:09:03;;;;;;;47.15;14.93;;;8.10;99.90;;;;;;5049253;28;20045;-67
2021/12/24 07:11:28;;;;;;;47.10;15.00;;;8.10;99.90;;;;;;5048109;28;20041;-67
2021/12/24 07:13:54;;;;;;;42.17;15.70;;;8.10;99.90;;;;;;5051698;28;20178;-67
2021/12/24 07:16:20;;;;;;;48.92;16.30;;;8.10;99.90;;;;;;5044747;28;20041;-66
2021/12/24 07:18:45;;;;;;;50.70;15.95;;;8.00;99.90;;;;;;5045399;28;20049;-66
2021/12/24 07:21:11;;;;;;;60.65;16.30;;;8.00;99.90;;;;;;5034851;28;20136;-67
2021/12/24 07:23:37;;;;;;;70.60;18.45;;;8.00;99.90;;;;;;5043885;28;20128;-67
2021/12/24 07:26:02;;;;;;;40.35;15.45;;;8.00;99.90;;;;;;5052983;28;20044;-66
2021/12/24 07:28:28;;;;;;;50.50;16.55;;;8.10;99.90;;;;;;5051456;28;20037;-67
2021/12/24 07:30:54;;;;;;;56.33;16.88;;;8.00;99.90;;;;;;5050001;28;20067;-65
2021/12/24 07:33:20;;;;;;;50.20;16.13;;;8.00;99.90;;;;;;5048925;28;20029;-66
2021/12/24 07:35:46;;;;;;;46.40;15.93;;;8.00;99.90;;;;;;5046575;28;20147;-67
2021/12/24 07:38:13;;;;;;;53.35;15.15;;;8.00;99.90;;;;;;5050513;28;20045;-66
2021/12/24 07:40:40;;;;;;;37.23;14.27;;;8.00;99.90;;;;;;5051805;28;20068;-66
2021/12/24 07:43:06;;;;;;;56.42;14.23;;;8.00;99.90;;;;;;5049262;28;20291;-67
2021/12/24 07:45:32;;;;;;;32.05;13.07;;;7.90;99.90;;;;;;5048149;28;20494;-66
2021/12/24 07:53:07;;;;;;;42.80;13.88;;;7.80;99.90;;;;;;5051436;28;20064;-67
2021/12/24 07:55:35;;;;;;;40.63;13.60;;;7.80;99.90;;;;;;5049176;28;20124;-67
2021/12/24 07:58:01;;;;;;;42.65;13.75;;;7.80;99.90;;;;;;5052827;28;20399;-68
2021/12/24 08:00:27;;;;;;;34.40;12.25;;;7.80;99.90;;;;;;5050239;28;20049;-67
2021/12/24 08:02:57;;;;;;;29.42;11.02;;;7.80;99.90;;;;;;5051679;28;20056;-68
2021/12/24 08:05:25;;;;;;;26.85;11.25;;;7.80;99.90;;;;;;5051955;28;20045;-66
2021/12/24 08:07:52;;;;;;;34.58;11.50;;;7.80;99.90;;;;;;5050056;28;20045;-67
2021/12/24 08:10:19;;;;;;;26.58;9.90;;;7.80;99.90;;;;;;5049012;28;20056;-68
2021/12/24 08:12:45;;;;;;;35.80;11.13;;;7.80;99.90;;;;;;5052104;28;20094;-68
2021/12/24 08:15:11;;;;;;;26.35;11.13;;;7.80;99.90;;;;;;5051054;28;20041;-67
2021/12/24 08:17:37;;;;;;;23.95;11.52;;;7.80;99.90;;;;;;5052190;28;20041;-68
2021/12/24 08:20:05;;;;;;;29.35;11.98;;;7.80;99.90;;;;;;5050195;28;20036;-67
2021/12/24 08:22:31;;;;;;;29.02;11.02;;;7.80;99.90;;;;;;5052359;28;20402;-67
2021/12/24 08:24:57;;;;;;;39.78;12.60;;;7.80;99.90;;;;;;5049947;28;20124;-67
2021/12/24 08:27:22;;;;;;;39.92;12.43;;;7.80;99.90;;;;;;5050368;28;20081;-67
2021/12/24 08:29:49;;;;;;;30.55;13.27;;;7.80;99.90;;;;;;5050128;28;20120;-66
2021/12/24 08:32:14;;;;;;;33.17;13.40;;;7.80;99.90;;;;;;5046235;28;20041;-67
2021/12/24 08:34:40;;;;;;;29.13;12.18;;;7.80;99.90;;;;;;5046108;28;20467;-68
2021/12/24 08:37:06;;;;;;;34.00;12.35;;;7.80;99.90;;;;;;5040239;28;20029;-67
2021/12/24 08:39:32;;;;;;;34.78;12.77;;;7.80;99.90;;;;;;5049010;28;20470;-69
2021/12/24 08:41:59;;;;;;;41.42;13.52;;;7.80;99.90;;;;;;5045397;28;20071;-68
2021/12/24 08:44:27;;;;;;;37.10;11.80;;;7.80;99.90;;;;;;5048905;28;20550;-67
2021/12/24 08:46:53;;;;;;;38.85;12.38;;;7.80;99.90;;;;;;5045937;28;20048;-67
2021/12/24 08:49:20;;;;;;;38.63;12.77;;;7.80;99.90;;;;;;5051258;28;20042;-66
2021/12/24 08:51:48;;;;;;;35.40;12.65;;;7.80;99.90;;;;;;5050651;28;20048;-66
2021/12/24 08:54:14;;;;;;;31.05;12.02;;;7.80;99.90;;;;;;5049142;28;20395;-67
2021/12/24 08:56:40;;;;;;;41.78;13.50;;;7.90;99.90;;;;;;5032082;28;20384;-66
2021/12/24 08:59:05;;;;;;;31.52;11.85;;;7.80;99.90;;;;;;5050961;28;20095;-67
2021/12/24 09:01:32;;;;;;;49.10;13.13;;;7.80;99.90;;;;;;5055020;28;20064;-67
2021/12/24 09:03:57;;;;;;;35.42;11.73;;;7.80;99.90;;;;;;5050799;28;20402;-67
2021/12/24 09:06:26;;;;;;;34.28;12.23;;;7.80;99.90;;;;;;5050668;28;20052;-67
2021/12/24 09:08:52;;;;;;;31.95;12.40;;;7.90;99.90;;;;;;5050038;28;20559;-68
2021/12/24 09:11:17;;;;;;;38.47;12.25;;;7.90;99.90;;;;;;5048269;28;20047;-67
2021/12/24 09:13:43;;;;;;;43.08;13.20;;;7.80;99.90;;;;;;5047211;28;20092;-66
2021/12/24 09:16:09;;;;;;;44.00;11.40;;;7.80;99.90;;;;;;5025272;28;20033;-68
2021/12/24 09:18:36;;;;;;;37.88;11.27;;;7.90;99.90;;;;;;5041352;28;20065;-68
2021/12/24 09:21:03;;;;;;;46.47;11.98;;;7.90;99.90;;;;;;5044549;28;20112;-67
2021/12/24 09:23:29;;;;;;;41.20;13.60;;;7.80;99.90;;;;;;5049052;28;20041;-67
2021/12/24 09:25:55;;;;;;;48.25;13.30;;;7.80;99.90;;;;;;5049572;28;20037;-68
2021/12/24 09:28:21;;;;;;;13.25;6.43;;;7.80;99.90;;;;;;5050588;28;20060;-66
2021/12/24 09:30:47;;;;;;;10.85;4.38;;;7.70;99.90;;;;;;5050777;28;20037;-67
2021/12/24 09:33:12;;;;;;;10.93;4.82;;;7.60;99.90;;;;;;5049302;28;20091;-66
2021/12/24 09:35:38;;;;;;;10.98;4.43;;;7.40;99.90;;;;;;5047543;28;20605;-67
2021/12/24 09:38:04;;;;;;;5.70;3.53;;;7.20;99.90;;;;;;5040221;28;20148;-68
2021/12/24 09:40:33;;;;;;;6.03;3.60;;;7.00;99.90;;;;;;5047630;28;20814;-68
2021/12/24 09:42:59;;;;;;;7.22;3.83;;;6.90;99.90;;;;;;5043242;28;20052;-68
2021/12/24 09:45:25;;;;;;;8.15;4.00;;;6.70;99.90;;;;;;5044970;28;20135;-68
2021/12/24 09:47:51;;;;;;;6.90;3.78;;;6.60;99.90;;;;;;5060438;28;20182;-67
2021/12/24 09:50:21;;;;;;;8.45;4.13;;;6.40;99.90;;;;;;5057514;28;20143;-68
2021/12/24 09:52:49;;;;;;;13.35;4.88;;;6.30;99.90;;;;;;5044805;28;20406;-69
2021/12/24 09:55:24;;;;;;;6.85;4.55;;;6.30;99.90;;;;;;5050791;28;20064;-67
2021/12/24 09:57:50;;;;;;;10.57;4.82;;;6.20;99.90;;;;;;5052316;28;20045;-68
2021/12/24 10:00:19;;;;;;;9.95;5.03;;;6.20;99.90;;;;;;5050312;28;20419;-68
2021/12/24 10:02:49;;;;;;;9.32;5.18;;;6.20;99.90;;;;;;5049183;28;20037;-67
2021/12/24 10:05:37;;;;;;;10.25;5.32;;;6.10;99.90;;;;;;5049237;28;20045;-67
2021/12/24 10:08:08;;;;;;;8.48;5.20;;;6.10;99.90;;;;;;5054820;28;20660;-68
2021/12/24 10:10:36;;;;;;;13.27;5.50;;;6.00;99.90;;;;;;5051491;28;20045;-68
2021/12/24 10:13:27;;;;;;;9.45;5.47;;;6.00;99.90;;;;;;5042375;28;20080;-68
2021/12/24 10:16:01;;;;;;;10.88;5.57;;;6.00;99.90;;;;;;5046603;28;20037;-68
2021/12/24 10:18:35;;;;;;;8.48;4.75;;;6.10;99.90;;;;;;5042388;28;20053;-68
2021/12/24 10:21:08;;;;;;;7.43;4.20;;;6.00;99.90;;;;;;5048922;28;20049;-68
2021/12/24 10:24:02;;;;;;;6.47;4.20;;;6.00;99.90;;;;;;5050580;28;20459;-69
2021/12/24 10:26:59;;;;;;;11.18;4.95;;;6.00;99.90;;;;;;5049203;28;20518;-67
2021/12/24 10:29:29;;;;;;;4.90;3.03;;;6.00;99.90;;;;;;5039547;28;20480;-67
2021/12/24 10:31:57;;;;;;;6.18;3.45;;;6.00;99.90;;;;;;5049317;28;20033;-68
2021/12/24 10:34:29;;;;;;;6.60;4.00;;;5.90;99.90;;;;;;5049215;28;20052;-67
2021/12/24 10:37:09;;;;;;;10.80;4.30;;;5.90;99.90;;;;;;5048785;28;20044;-68
2021/12/24 10:39:47;;;;;;;8.63;4.60;;;5.90;99.90;;;;;;5044191;28;20444;-68
2021/12/24 10:42:28;;;;;;;9.35;5.45;;;5.80;99.90;;;;;;5040774;28;20765;-68
2021/12/24 10:44:55;;;;;;;8.63;4.18;;;5.70;99.90;;;;;;5049494;28;20375;-68
2021/12/24 10:47:28;;;;;;;14.40;5.20;;;5.70;99.90;;;;;;5048687;28;20049;-68
2021/12/24 10:50:15;;;;;;;10.57;5.22;;;5.80;99.90;;;;;;5044316;28;20499;-68
2021/12/24 10:53:00;;;;;;;10.57;5.32;;;5.80;99.90;;;;;;5039477;28;20128;-68
2021/12/24 10:55:34;;;;;;;7.82;5.15;;;5.70;99.90;;;;;;5052437;28;20048;-66
2021/12/24 10:58:00;;;;;;;11.18;6.07;;;5.60;99.90;;;;;;5043416;28;20061;-68
2021/12/24 11:00:35;;;;;;;9.50;5.90;;;5.60;99.90;;;;;;5046167;28;20040;-68
2021/12/24 11:03:06;;;;;;;9.43;5.80;;;5.60;99.90;;;;;;5053278;28;20418;-68
2021/12/24 11:05:41;;;;;;;8.98;5.18;;;5.50;99.90;;;;;;5050475;28;20659;-68
2021/12/24 11:08:10;;;;;;;10.65;5.75;;;5.50;99.90;;;;;;5051034;28;23676;-68
2021/12/24 11:10:41;;;;;;;8.80;5.50;;;5.50;99.90;;;;;;5047892;28;20108;-67
2021/12/24 11:13:14;;;;;;;11.38;6.00;;;5.60;99.90;;;;;;5052077;28;20087;-68
2021/12/24 11:15:48;;;;;;;10.57;5.75;;;5.50;99.90;;;;;;5052224;28;20383;-68
2021/12/24 11:18:30;;;;;;;9.02;4.88;;;5.50;99.90;;;;;;5055143;28;20419;-67
2021/12/24 11:21:02;;;;;;;13.48;5.78;;;5.50;99.90;;;;;;5053162;28;20045;-68
2021/12/24 11:23:30;;;;;;;15.63;5.68;;;5.40;99.90;;;;;;5050687;28;20036;-67
2021/12/24 11:26:03;;;;;;;;;;;5.40;99.90;;;;;;5053821;28;20095;-67
2021/12/24 11:28:28;;;;;;;12.00;6.38;;;5.40;99.90;;;;;;5043320;28;20283;-66
2021/12/24 11:30:57;;;;;;;16.17;6.72;;;5.40;99.90;;;;;;5053030;28;20049;-67
2021/12/24 11:33:26;;;;;;;16.55;5.45;;;5.50;99.90;;;;;;5032890;28;20102;-68
2021/12/24 11:35:53;;;;;;;10.57;6.18;;;5.50;99.90;;;;;;5050603;28;20067;-67
2021/12/24 11:38:25;;;;;;;8.65;4.95;;;5.50;99.90;;;;;;5051517;28;20510;-68
2021/12/24 11:40:53;;;;;;;11.82;5.80;;;5.50;99.90;;;;;;5049330;28;20479;-67
2021/12/24 11:43:21;;;;;;;10.52;5.00;;;5.50;99.90;;;;;;5044871;28;20045;-67
2021/12/24 11:45:46;;;;;;;11.85;5.57;;;5.50;99.90;;;;;;5049079;28;20037;-67
2021/12/24 11:48:13;;;;;;;10.93;5.28;;;5.50;99.90;;;;;;5047949;28;20037;-67
2021/12/24 11:50:40;;;;;;;9.25;5.10;;;5.50;99.90;;;;;;5039865;28;20363;-67
2021/12/24 11:53:09;;;;;;;13.17;6.50;;;5.40;99.90;;;;;;5051056;28;20037;-66
2021/12/24 11:55:39;;;;;;;8.68;4.68;;;5.40;99.90;;;;;;5052963;28;20059;-66
2021/12/24 11:58:14;;;;;;;8.13;4.80;;;5.40;99.90;;;;;;5052154;28;20049;-66
2021/12/24 12:00:43;;;;;;;11.38;5.70;;;5.40;99.90;;;;;;5068369;28;20486;-67
2021/12/24 12:03:10;;;;;;;12.35;6.40;;;5.40;99.90;;;;;;5054240;28;20398;-67
2021/12/24 12:05:41;;;;;;;10.90;5.50;;;5.30;99.90;;;;;;5047448;28;20048;-68
2021/12/24 12:08:25;;;;;;;8.20;5.05;;;5.40;99.90;;;;;;5045405;28;20064;-68
2021/12/24 12:11:05;;;;;;;12.32;5.80;;;5.40;99.90;;;;;;5040464;28;20060;-67
2021/12/24 12:13:49;;;;;;;10.63;5.75;;;5.40;99.90;;;;;;5048277;28;20048;-68
2021/12/24 12:16:21;;;;;;;10.38;5.03;;;5.40;99.90;;;;;;5050693;28;20049;-66
2021/12/24 12:19:02;;;;;;;9.45;5.18;;;5.40;99.90;;;;;;5043377;28;20053;-66
2021/12/24 12:21:43;;;;;;;11.02;5.82;;;5.40;99.90;;;;;;5047895;28;20049;-66
2021/12/24 12:26:49;;;;;;;10.23;5.20;;;5.40;99.90;;;;;;5050759;28;20392;-68
2021/12/24 12:29:15;;;;;;;8.45;5.45;;;5.40;99.90;;;;;;5051134;28;20056;-66
2021/12/24 12:31:41;;;;;;;9.15;5.20;;;5.50;99.90;;;;;;5049935;28;20048;-66
2021/12/24 12:34:46;;;;;;;8.88;5.47;;;5.50;99.90;;;;;;5045391;28;20041;-68
2021/12/24 12:37:17;;;;;;;8.75;5.40;;;5.50;99.90;;;;;;5049121;28;20045;-67
2021/12/24 12:39:44;;;;;;;7.07;4.45;;;5.50;99.90;;;;;;5050336;28;20080;-67
2021/12/24 12:42:13;;;;;;;10.02;5.93;;;5.60;99.90;;;;;;5049381;28;20029;-67
2021/12/24 12:44:41;;;;;;;8.23;4.90;;;5.60;99.90;;;;;;5031543;28;20083;-66
2021/12/24 12:47:11;;;;;;;8.35;4.72;;;5.60;99.90;;;;;;5044244;28;20045;-66
2021/12/24 12:49:37;;;;;;;11.15;5.97;;;5.70;99.90;;;;;;5044760;28;20068;-68
2021/12/24 12:52:07;;;;;;;8.98;5.43;;;5.70;99.90;;;;;;5048832;28;20521;-65
2021/12/24 12:54:41;;;;;;;8.68;5.75;;;5.70;99.90;;;;;;5047601;28;20059;-67
2021/12/24 12:57:21;;;;;;;9.10;5.93;;;5.80;99.90;;;;;;5040157;28;20077;-66
2021/12/24 13:00:08;;;;;;;11.48;6.13;;;5.80;99.90;;;;;;5051040;28;20045;-67
2021/12/24 13:02:55;;;;;;;8.00;5.47;;;5.90;99.90;;;;;;5049605;28;20040;-65
2021/12/24 13:05:21;;;;;;;9.50;5.38;;;5.90;99.90;;;;;;5048539;28;20434;-66
2021/12/24 13:07:48;;;;;;;9.75;5.35;;;5.90;99.90;;;;;;5049722;28;20624;-66
2021/12/24 13:10:17;;;;;;;10.25;5.60;;;6.00;99.90;;;;;;5042558;28;20045;-66
2021/12/24 13:12:43;;;;;;;9.63;6.07;;;6.00;99.90;;;;;;5047294;28;20051;-67
2021/12/24 13:15:15;;;;;;;11.85;6.38;;;6.10;99.90;;;;;;5052427;28;20518;-73
2021/12/24 13:17:46;;;;;;;8.18;5.97;;;6.00;99.90;;;;;;5051310;28;20521;-66
2021/12/24 13:20:34;;;;;;;14.18;8.40;;;6.00;99.90;;;;;;5052853;28;20051;-67
2021/12/24 13:22:58;;;;;;;11.93;7.13;;;6.00;99.90;;;;;;5047754;28;20410;-66
2021/12/24 13:25:24;;;;;;;9.10;6.00;;;6.00;99.90;;;;;;5046768;28;20041;-67
2021/12/24 13:27:53;;;;;;;12.25;6.95;;;6.00;99.90;;;;;;5044825;28;20541;-67
2021/12/24 13:30:27;;;;;;;17.17;6.45;;;6.00;99.90;;;;;;5044213;28;20722;-66
2021/12/24 13:32:55;;;;;;;20.08;10.65;;;6.00;99.90;;;;;;5047057;28;20055;-66
2021/12/24 13:35:23;;;;;;;;;;;6.00;99.90;;;;;;5048520;28;20402;-66
2021/12/24 13:37:49;;;;;;;9.48;5.80;;;6.10;99.90;;;;;;5047533;28;20296;-66
2021/12/24 13:40:20;;;;;;;12.63;6.47;;;6.10;99.90;;;;;;5047127;28;20037;-65
2021/12/24 13:42:51;;;;;;;10.27;6.22;;;6.10;99.90;;;;;;5048270;28;20435;-67
2021/12/24 13:45:18;;;;;;;11.55;6.97;;;6.10;99.90;;;;;;5048034;28;20483;-66
2021/12/24 13:55:35;;;;;;;11.45;5.35;;;6.10;99.90;;;;;;5046728;28;20080;-68
2021/12/24 13:58:12;;;;;;;8.55;5.85;;;6.00;99.90;;;;;;5046049;28;20411;-68
2021/12/24 14:00:47;;;;;;;10.13;5.93;;;6.10;99.90;;;;;;5049851;28;20060;-67
2021/12/24 14:03:13;;;;;;;14.15;5.93;;;6.00;99.90;;;;;;5048165;28;20048;-68
2021/12/24 14:05:50;;;;;;;14.32;7.03;;;6.00;99.90;;;;;;5048959;28;20045;-69
2021/12/24 14:08:21;;;;;;;14.75;6.95;;;6.00;99.90;;;;;;5046167;28;20403;-68
2021/12/24 14:10:49;;;;;;;11.15;6.97;;;6.00;99.90;;;;;;5046922;28;20049;-68
2021/12/24 14:13:29;;;;;;;11.27;6.43;;;6.00;99.90;;;;;;5046657;28;20106;-68
2021/12/24 14:18:56;;;;;;;11.38;5.45;;;6.00;99.90;;;;;;5040819;28;20053;-69
2021/12/24 14:24:19;;;;;;;13.25;5.93;;;6.10;99.90;;;;;;5043200;28;20064;-69
2021/12/24 14:26:52;;;;;;;8.35;5.28;;;6.00;99.90;;;;;;5046155;28;20044;-68
2021/12/24 14:29:25;;;;;;;8.27;3.83;;;6.10;99.90;;;;;;5042997;28;20041;-68
2021/12/24 14:31:54;;;;;;;7.18;3.80;;;6.10;99.90;;;;;;5050029;28;20095;-69
2021/12/24 14:34:35;;;;;;;7.35;3.17;;;6.10;99.90;;;;;;5040694;28;20044;-69
2021/12/24 14:37:12;;;;;;;4.82;2.50;;;6.10;99.90;;;;;;5050278;28;20118;-68
2021/12/24 14:39:45;;;;;;;7.22;2.72;;;6.00;99.90;;;;;;5047336;28;20052;-69
2021/12/24 14:42:15;;;;;;;5.43;2.53;;;6.00;99.90;;;;;;5047764;28;20049;-69
2021/12/24 14:44:41;;;;;;;6.95;2.50;;;6.00;99.90;;;;;;5047667;28;20491;-69
2021/12/24 14:47:08;;;;;;;10.57;2.60;;;6.00;99.90;;;;;;5047640;28;20475;-69
2021/12/24 14:49:37;;;;;;;8.02;2.45;;;5.90;99.90;;;;;;5046404;28;20053;-69